createdAt,value
2017-10-11T00:00:27.675Z,9.91
2017-10-11T00:02:53.909Z,9.47
2017-10-11T00:05:20.122Z,9.17
2017-10-11T00:07:46.358Z,8.88
2017-10-11T00:10:12.580Z,8.73
2017-10-11T00:12:38.870Z,8.98
2017-10-11T00:15:05.093Z,9.21
2017-10-11T00:17:31.317Z,9.32
2017-10-11T00:19:57.576Z,9.40
2017-10-11T00:22:23.798Z,9.45
2017-10-11T00:24:50.043Z,9.33
2017-10-11T00:27:16.282Z,9.50
2017-10-11T00:29:42.487Z,9.33
2017-10-11T00:32:08.700Z,9.36
2017-10-11T00:34:34.920Z,9.03
2017-10-11T00:37:01.179Z,9.12
2017-10-11T00:39:27.409Z,9.42
2017-10-11T00:41:53.641Z,9.34
2017-10-11T00:44:19.890Z,9.65
2017-10-11T00:46:46.254Z,9.70
2017-10-11T00:49:12.575Z,9.51
2017-10-11T00:51:38.798Z,9.13
2017-10-11T00:54:05.021Z,8.75
2017-10-11T00:56:31.246Z,8.51
2017-10-11T00:58:57.472Z,8.66
2017-10-11T01:01:23.799Z,9.00
2017-10-11T01:03:50.025Z,9.22
2017-10-11T01:06:16.249Z,8.82
2017-10-11T01:08:42.480Z,8.48
2017-10-11T01:11:08.708Z,8.26
2017-10-11T01:13:34.938Z,8.39
2017-10-11T01:16:01.154Z,8.38
2017-10-11T01:18:27.422Z,8.12
2017-10-11T01:20:53.664Z,8.08
2017-10-11T01:23:19.894Z,8.01
2017-10-11T01:25:46.157Z,8.00
2017-10-11T01:28:12.377Z,7.94
2017-10-11T01:30:38.624Z,8.00
2017-10-11T01:33:04.970Z,7.81
2017-10-11T01:35:31.227Z,7.77
2017-10-11T01:37:57.487Z,7.70
2017-10-11T01:40:23.698Z,8.06
2017-10-11T01:42:49.917Z,8.56
2017-10-11T01:45:16.151Z,8.48
2017-10-11T01:47:42.391Z,8.12
2017-10-11T01:50:08.602Z,7.89
2017-10-11T01:52:35.011Z,8.32
2017-10-11T01:55:01.229Z,8.33
2017-10-11T01:57:27.439Z,8.06
2017-10-11T01:59:53.664Z,7.79
2017-10-11T02:02:19.920Z,7.63
2017-10-11T02:04:46.152Z,7.53
2017-10-11T02:07:12.399Z,7.92
2017-10-11T02:09:38.650Z,8.11
2017-10-11T02:12:05.067Z,7.81
2017-10-11T02:14:31.358Z,7.64
2017-10-11T02:16:57.604Z,7.52
2017-10-11T02:19:23.953Z,7.30
2017-10-11T02:21:50.170Z,7.67
2017-10-11T02:24:16.411Z,7.51
2017-10-11T02:26:42.649Z,7.36
2017-10-11T02:29:08.887Z,7.82
2017-10-11T02:31:35.101Z,8.00
2017-10-11T02:34:01.315Z,7.64
2017-10-11T02:36:27.544Z,7.66
2017-10-11T02:38:53.833Z,7.86
2017-10-11T02:41:20.064Z,8.18
2017-10-11T02:43:46.290Z,7.99
2017-10-11T02:46:12.540Z,7.87
2017-10-11T02:48:38.776Z,7.85
2017-10-11T02:51:05.005Z,7.57
2017-10-11T02:53:31.243Z,7.62
2017-10-11T02:55:57.469Z,7.61
2017-10-11T02:58:23.808Z,7.46
2017-10-11T03:00:50.070Z,7.34
2017-10-11T03:03:16.462Z,7.72
2017-10-11T03:05:42.679Z,7.67
2017-10-11T03:08:08.921Z,7.76
2017-10-11T03:10:35.152Z,7.79
2017-10-11T03:13:01.388Z,7.70
2017-10-11T03:15:27.621Z,7.88
2017-10-11T03:17:53.861Z,7.52
2017-10-11T03:20:20.111Z,7.37
2017-10-11T03:22:46.508Z,7.31
2017-10-11T03:25:12.728Z,7.41
2017-10-11T03:27:39.013Z,7.79
2017-10-11T03:30:05.230Z,7.77
2017-10-11T03:32:31.444Z,7.60
2017-10-11T03:34:57.699Z,7.59
2017-10-11T03:37:24.582Z,7.40
2017-10-11T03:39:50.935Z,7.18
2017-10-11T03:42:17.180Z,7.09
2017-10-11T03:44:43.407Z,6.92
2017-10-11T03:47:09.647Z,6.90
2017-10-11T03:49:35.875Z,6.87
2017-10-11T03:52:02.116Z,6.74
2017-10-11T03:54:28.358Z,6.74
2017-10-11T03:56:54.581Z,6.65
2017-10-11T03:59:20.799Z,6.58
2017-10-11T04:01:47.026Z,6.57
2017-10-11T04:04:13.299Z,6.90
2017-10-11T04:06:39.649Z,6.92
2017-10-11T04:09:05.870Z,6.73
2017-10-11T04:11:32.100Z,6.75
2017-10-11T04:13:58.540Z,6.76
2017-10-11T04:16:24.780Z,7.27
2017-10-11T04:18:51.058Z,7.44
2017-10-11T04:21:17.295Z,7.19
2017-10-11T04:23:43.516Z,6.99
2017-10-11T04:26:09.752Z,7.34
2017-10-11T04:28:36.030Z,7.76
2017-10-11T04:31:02.257Z,7.54
2017-10-11T04:33:28.574Z,7.39
2017-10-11T04:35:54.837Z,7.32
2017-10-11T04:38:21.059Z,7.65
2017-10-11T04:40:47.335Z,7.73
2017-10-11T04:43:13.558Z,7.81
2017-10-11T04:45:39.932Z,7.63
2017-10-11T04:48:06.142Z,7.69
2017-10-11T04:50:32.412Z,8.00
2017-10-11T04:52:58.660Z,8.16
2017-10-11T04:55:24.893Z,8.41
2017-10-11T04:57:51.126Z,8.49
2017-10-11T05:00:17.358Z,8.54
2017-10-11T05:02:43.597Z,8.67
2017-10-11T05:05:09.864Z,8.90
2017-10-11T05:07:36.101Z,8.78
2017-10-11T05:10:02.342Z,8.73
2017-10-11T05:12:28.579Z,8.86
2017-10-11T05:14:54.807Z,9.12
2017-10-11T05:17:21.141Z,9.44
2017-10-11T05:19:47.399Z,9.85
2017-10-11T05:22:13.676Z,10.63
2017-10-11T05:24:39.927Z,11.89
2017-10-11T05:27:06.158Z,12.90
2017-10-11T05:29:32.385Z,13.62
2017-10-11T05:31:58.645Z,14.31
2017-10-11T05:34:24.877Z,14.79
2017-10-11T05:36:51.116Z,14.94
2017-10-11T05:39:17.330Z,15.23
2017-10-11T05:41:43.542Z,15.20
2017-10-11T05:44:09.827Z,15.69
2017-10-11T05:46:36.057Z,16.28
2017-10-11T05:49:02.307Z,16.76
2017-10-11T05:51:28.541Z,16.97
2017-10-11T05:53:54.763Z,17.60
2017-10-11T05:56:20.986Z,17.65
2017-10-11T05:58:47.383Z,17.39
2017-10-11T06:01:13.640Z,17.92
2017-10-11T06:03:39.873Z,18.04
2017-10-11T06:06:06.103Z,18.48
2017-10-11T06:08:32.349Z,19.41
2017-10-11T06:10:58.612Z,19.50
2017-10-11T06:13:24.939Z,19.45
2017-10-11T06:15:51.171Z,19.82
2017-10-11T06:18:17.411Z,20.26
2017-10-11T06:20:43.637Z,20.59
2017-10-11T06:23:09.865Z,20.50
2017-10-11T06:25:36.328Z,20.47
2017-10-11T06:28:02.544Z,20.57
2017-10-11T06:30:28.771Z,21.52
2017-10-11T06:32:55.009Z,21.93
2017-10-11T06:35:21.240Z,21.90
2017-10-11T06:37:47.457Z,21.80
2017-10-11T06:40:13.673Z,21.51
2017-10-11T06:42:39.901Z,22.20
2017-10-11T06:45:06.127Z,22.11
2017-10-11T06:47:32.369Z,22.69
2017-10-11T06:49:58.640Z,22.67
2017-10-11T06:52:24.862Z,23.24
2017-10-11T06:54:51.077Z,22.18
2017-10-11T06:57:17.305Z,21.90
2017-10-11T06:59:43.525Z,22.45
2017-10-11T07:02:09.746Z,22.51
2017-10-11T07:04:36.029Z,21.52
2017-10-11T07:07:02.261Z,21.03
2017-10-11T07:09:28.497Z,21.52
2017-10-11T07:11:54.879Z,21.92
2017-10-11T07:14:21.123Z,22.68
2017-10-11T07:16:47.334Z,22.82
2017-10-11T07:19:13.572Z,22.98
2017-10-11T07:21:39.811Z,22.59
2017-10-11T07:24:06.032Z,23.26
2017-10-11T07:26:32.277Z,23.02
2017-10-11T07:28:58.490Z,23.20
2017-10-11T07:31:24.703Z,23.78
2017-10-11T07:33:50.926Z,23.78
2017-10-11T07:36:17.162Z,24.02
2017-10-11T07:38:43.404Z,23.96
2017-10-11T07:41:09.639Z,24.78
2017-10-11T07:43:35.867Z,25.01
2017-10-11T07:46:02.115Z,25.13
2017-10-11T07:48:28.333Z,25.19
2017-10-11T07:50:54.591Z,25.67
2017-10-11T07:53:20.801Z,24.96
2017-10-11T07:55:47.029Z,24.48
2017-10-11T07:58:13.265Z,23.51
2017-10-11T08:00:39.499Z,22.95
2017-10-11T08:03:05.713Z,23.56
2017-10-11T08:05:31.966Z,23.91
2017-10-11T08:07:58.190Z,23.86
2017-10-11T08:10:24.399Z,24.41
2017-10-11T08:12:50.621Z,23.82
2017-10-11T08:15:16.889Z,23.47
2017-10-11T08:17:43.251Z,24.22
2017-10-11T08:20:09.494Z,24.15
2017-10-11T08:22:35.732Z,24.21
2017-10-11T08:25:01.950Z,23.92
2017-10-11T08:27:28.291Z,24.33
2017-10-11T08:29:54.502Z,25.06
2017-10-11T08:32:20.719Z,25.90
2017-10-11T08:34:46.949Z,26.60
2017-10-11T08:37:13.203Z,26.78
2017-10-11T08:39:39.418Z,26.33
2017-10-11T08:42:05.607Z,26.33
2017-10-11T08:44:31.826Z,26.53
2017-10-11T08:46:58.059Z,26.60
2017-10-11T08:49:24.278Z,26.25
2017-10-11T08:51:50.503Z,25.73
2017-10-11T08:54:16.726Z,25.85
2017-10-11T08:56:42.955Z,26.60
2017-10-11T08:59:09.176Z,26.61
2017-10-11T09:01:35.454Z,26.72
2017-10-11T09:04:01.741Z,27.77
2017-10-11T09:06:27.964Z,28.69
2017-10-11T09:08:54.194Z,29.42
2017-10-11T09:11:20.443Z,29.00
2017-10-11T09:13:46.628Z,27.81
2017-10-11T09:16:12.859Z,28.53
2017-10-11T09:18:39.059Z,28.43
2017-10-11T09:21:05.230Z,27.73
2017-10-11T09:23:31.432Z,27.57
2017-10-11T09:25:57.604Z,27.95
2017-10-11T09:28:23.784Z,27.90
2017-10-11T09:30:49.968Z,28.41
2017-10-11T09:33:16.154Z,28.13
2017-10-11T09:35:42.359Z,28.37
2017-10-11T09:38:08.549Z,28.27
2017-10-11T09:40:34.711Z,28.82
2017-10-11T09:43:00.941Z,28.89
2017-10-11T09:45:27.131Z,28.12
2017-10-11T09:47:53.369Z,26.94
2017-10-11T09:50:19.548Z,27.57
2017-10-11T09:52:45.749Z,28.97
2017-10-11T09:55:12.130Z,29.10
2017-10-11T09:57:38.326Z,29.15
2017-10-11T10:00:04.544Z,28.08
2017-10-11T10:02:30.801Z,28.32
2017-10-11T10:04:56.989Z,29.41
2017-10-11T10:07:23.162Z,30.20
2017-10-11T10:09:49.326Z,30.51
2017-10-11T10:12:15.504Z,30.56
2017-10-11T10:14:41.692Z,30.73
2017-10-11T10:17:07.868Z,30.14
2017-10-11T10:19:34.093Z,29.30
2017-10-11T10:22:00.288Z,28.99
2017-10-11T10:24:26.467Z,28.85
2017-10-11T10:26:52.649Z,28.48
2017-10-11T10:29:18.837Z,28.47
2017-10-11T10:31:45.045Z,28.99
2017-10-11T10:34:11.230Z,29.04
2017-10-11T10:36:37.423Z,29.50
2017-10-11T10:39:03.609Z,30.28
2017-10-11T10:41:29.805Z,31.24
2017-10-11T10:43:55.997Z,31.56
2017-10-11T10:46:22.205Z,31.45
2017-10-11T10:48:48.374Z,30.97
2017-10-11T10:51:14.545Z,29.96
2017-10-11T10:53:40.726Z,29.49
2017-10-11T10:56:06.894Z,29.23
2017-10-11T10:58:33.110Z,29.69
2017-10-11T11:00:59.278Z,29.89
2017-10-11T11:03:25.437Z,30.08
2017-10-11T11:05:51.617Z,29.29
2017-10-11T11:08:17.830Z,30.93
2017-10-11T11:10:44.036Z,30.60
2017-10-11T11:13:10.218Z,30.06
2017-10-11T11:15:36.387Z,30.06
2017-10-11T11:18:02.563Z,29.94
2017-10-11T11:20:28.746Z,30.95
2017-10-11T11:22:54.952Z,31.72
2017-10-11T11:25:21.093Z,32.09
2017-10-11T11:27:47.267Z,32.86
2017-10-11T11:30:13.650Z,33.75
2017-10-11T11:32:39.831Z,33.32
2017-10-11T11:35:06.119Z,32.87
2017-10-11T11:37:32.314Z,32.08
2017-10-11T11:39:58.489Z,31.96
2017-10-11T11:42:24.650Z,30.82
2017-10-11T11:44:50.809Z,30.34
2017-10-11T11:47:17.033Z,31.10
2017-10-11T11:49:43.216Z,31.30
2017-10-11T11:52:09.396Z,32.12
2017-10-11T11:54:35.562Z,32.78
2017-10-11T11:57:01.745Z,32.87
2017-10-11T11:59:27.968Z,32.76
2017-10-11T12:01:54.135Z,31.52
2017-10-11T12:04:20.295Z,31.58
2017-10-11T12:06:46.488Z,31.29
2017-10-11T12:09:12.775Z,30.07
2017-10-11T12:11:38.995Z,30.50
2017-10-11T12:14:05.176Z,30.52
2017-10-11T12:16:31.335Z,29.70
2017-10-11T12:18:57.536Z,30.93
2017-10-11T12:21:23.706Z,31.68
2017-10-11T12:23:49.860Z,31.03
2017-10-11T12:26:16.036Z,31.29
2017-10-11T12:28:42.201Z,30.46
2017-10-11T12:31:08.390Z,29.11
2017-10-11T12:33:34.558Z,27.66
2017-10-11T12:36:00.702Z,28.05
2017-10-11T12:38:26.863Z,29.12
2017-10-11T12:40:53.023Z,29.67
2017-10-11T12:43:19.253Z,30.17
2017-10-11T12:45:45.504Z,29.42
2017-10-11T12:48:11.679Z,29.76
2017-10-11T12:50:37.868Z,29.93
2017-10-11T12:53:04.044Z,30.89
2017-10-11T12:55:30.264Z,31.17
2017-10-11T12:57:56.429Z,31.25
2017-10-11T13:00:22.608Z,30.10
2017-10-11T13:02:48.939Z,30.22
2017-10-11T13:05:15.282Z,31.79
2017-10-11T13:07:41.500Z,31.54
2017-10-11T13:10:07.681Z,31.27
2017-10-11T13:12:33.861Z,29.79
2017-10-11T13:15:00.072Z,30.14
2017-10-11T13:17:26.247Z,29.75
2017-10-11T13:19:52.419Z,28.79
2017-10-11T13:22:18.617Z,27.96
2017-10-11T13:24:44.802Z,26.70
2017-10-11T13:27:10.983Z,25.47
2017-10-11T13:29:37.201Z,24.57
2017-10-11T13:32:03.409Z,24.09
2017-10-11T13:34:29.629Z,23.06
2017-10-11T13:36:55.795Z,23.09
2017-10-11T13:39:21.965Z,22.91
2017-10-11T13:41:48.122Z,22.34
2017-10-11T13:44:14.325Z,22.29
2017-10-11T13:46:40.500Z,22.32
2017-10-11T13:49:06.808Z,22.25
2017-10-11T13:51:32.976Z,22.28
2017-10-11T13:53:59.154Z,22.07
2017-10-11T13:56:25.331Z,21.98
2017-10-11T13:58:51.554Z,21.93
2017-10-11T14:01:17.732Z,21.64
2017-10-11T14:03:44.026Z,21.65
2017-10-11T14:06:10.276Z,21.61
2017-10-11T14:08:36.437Z,21.58
2017-10-11T14:11:02.606Z,21.57
2017-10-11T14:13:28.784Z,21.51
2017-10-11T14:15:54.950Z,21.47
2017-10-11T14:18:21.121Z,21.18
2017-10-11T14:20:47.386Z,21.13
2017-10-11T14:23:13.547Z,20.98
2017-10-11T14:25:39.797Z,20.96
2017-10-11T14:28:05.964Z,20.74
2017-10-11T14:30:32.154Z,20.76
2017-10-11T14:32:58.565Z,20.66
2017-10-11T14:35:24.800Z,20.56
2017-10-11T14:37:51.040Z,20.40
2017-10-11T14:40:17.275Z,20.32
2017-10-11T14:42:43.687Z,20.14
2017-10-11T14:45:09.913Z,20.09
2017-10-11T14:47:36.141Z,19.92
2017-10-11T14:50:02.383Z,19.91
2017-10-11T14:52:28.628Z,19.86
2017-10-11T14:54:54.896Z,19.79
2017-10-11T14:57:21.295Z,19.74
2017-10-11T14:59:47.545Z,19.55
2017-10-11T15:02:13.903Z,19.47
2017-10-11T15:04:40.123Z,19.28
2017-10-11T15:07:06.355Z,19.17
2017-10-11T15:09:32.611Z,19.01
2017-10-11T15:11:58.843Z,18.89
2017-10-11T15:14:25.274Z,18.71
2017-10-11T15:16:51.512Z,18.55
2017-10-11T15:19:17.935Z,18.36
2017-10-11T15:21:44.292Z,18.23
2017-10-11T15:24:10.604Z,18.00
2017-10-11T15:26:37.031Z,17.71
2017-10-11T15:29:03.274Z,17.60
2017-10-11T15:31:29.481Z,17.36
2017-10-11T15:33:55.732Z,17.21
2017-10-11T15:36:21.969Z,17.05
2017-10-11T15:38:48.237Z,16.85
2017-10-11T15:41:14.439Z,16.72
2017-10-11T15:43:40.646Z,16.56
2017-10-11T15:46:06.866Z,16.36
2017-10-11T15:48:33.099Z,16.26
2017-10-11T15:50:59.318Z,16.14
2017-10-11T15:53:25.535Z,16.05
2017-10-11T15:55:51.744Z,15.96
2017-10-11T15:58:17.979Z,15.91
2017-10-11T16:00:44.197Z,15.69
2017-10-11T16:03:10.454Z,15.64
2017-10-11T16:05:36.669Z,15.60
2017-10-11T16:08:02.887Z,15.56
2017-10-11T16:10:29.120Z,15.40
2017-10-11T16:12:55.348Z,15.28
2017-10-11T16:15:21.579Z,15.28
2017-10-11T16:17:47.801Z,15.15
2017-10-11T16:20:14.017Z,15.18
2017-10-11T16:22:40.235Z,15.04
2017-10-11T16:25:06.467Z,15.09
2017-10-11T16:27:32.747Z,15.11
2017-10-11T16:29:58.975Z,14.99
2017-10-11T16:32:25.183Z,14.88
2017-10-11T16:34:51.437Z,14.73
2017-10-11T16:37:17.634Z,14.57
2017-10-11T16:39:43.884Z,14.41
2017-10-11T16:42:10.111Z,14.21
2017-10-11T16:44:36.339Z,14.18
2017-10-11T16:47:02.573Z,14.35
2017-10-11T16:49:28.807Z,14.28
2017-10-11T16:51:55.043Z,14.29
2017-10-11T16:54:21.267Z,14.22
2017-10-11T16:56:47.504Z,14.10
2017-10-11T16:59:13.727Z,14.11
2017-10-11T17:01:39.945Z,14.03
2017-10-11T17:04:06.232Z,14.17
2017-10-11T17:06:32.455Z,14.06
2017-10-11T17:08:58.675Z,13.95
2017-10-11T17:11:24.903Z,13.86
2017-10-11T17:13:51.118Z,13.78
2017-10-11T17:16:17.376Z,13.52
2017-10-11T17:18:43.726Z,13.44
2017-10-11T17:21:09.926Z,13.53
2017-10-11T17:23:36.150Z,13.67
2017-10-11T17:26:02.379Z,13.50
2017-10-11T17:28:28.588Z,13.34
2017-10-11T17:30:54.820Z,13.33
2017-10-11T17:33:21.031Z,13.02
2017-10-11T17:35:47.339Z,12.95
2017-10-11T17:38:13.549Z,12.94
2017-10-11T17:40:39.776Z,12.85
2017-10-11T17:43:06.000Z,12.70
2017-10-11T17:45:32.220Z,12.57
2017-10-11T17:47:58.451Z,12.45
2017-10-11T17:50:24.668Z,12.41
2017-10-11T17:52:50.879Z,12.28
2017-10-11T17:55:17.104Z,12.18
2017-10-11T17:57:43.321Z,12.07
2017-10-11T18:00:09.565Z,11.97
2017-10-11T18:02:35.792Z,11.85
2017-10-11T18:05:02.070Z,11.89
2017-10-11T18:07:28.293Z,11.85
2017-10-11T18:09:54.503Z,11.83
2017-10-11T18:12:20.749Z,11.78
2017-10-11T18:14:46.966Z,11.75
2017-10-11T18:17:13.181Z,11.62
2017-10-11T18:19:39.392Z,11.44
2017-10-11T18:22:05.603Z,11.32
2017-10-11T18:24:31.811Z,11.45
2017-10-11T18:26:58.033Z,11.37
2017-10-11T18:29:24.252Z,11.21
2017-10-11T18:31:50.487Z,11.05
2017-10-11T18:34:16.740Z,10.94
2017-10-11T18:36:42.950Z,10.96
2017-10-11T18:39:09.163Z,10.93
2017-10-11T18:41:35.530Z,10.85
2017-10-11T18:44:01.755Z,10.82
2017-10-11T18:46:28.006Z,11.07
2017-10-11T18:48:54.268Z,10.97
2017-10-11T18:51:20.484Z,10.79
2017-10-11T18:53:46.774Z,10.61
2017-10-11T18:56:12.998Z,10.49
2017-10-11T18:58:39.219Z,10.43
2017-10-11T19:01:05.462Z,10.50
2017-10-11T19:03:31.690Z,10.69
2017-10-11T19:05:57.895Z,10.74
2017-10-11T19:08:24.163Z,10.66
2017-10-11T19:10:50.371Z,10.44
2017-10-11T19:13:16.577Z,10.28
2017-10-11T19:15:42.802Z,10.14
2017-10-11T19:18:09.025Z,10.15
2017-10-11T19:20:35.298Z,10.30
2017-10-11T19:23:01.526Z,10.39
2017-10-11T19:25:27.721Z,10.20
2017-10-11T19:27:53.943Z,10.13
2017-10-11T19:30:20.149Z,10.03
2017-10-11T19:32:46.411Z,9.90
2017-10-11T19:35:12.627Z,9.83
2017-10-11T19:37:38.847Z,9.78
2017-10-11T19:40:05.063Z,9.76
2017-10-11T19:42:31.342Z,9.78
2017-10-11T19:44:57.570Z,9.76
2017-10-11T19:47:23.811Z,9.62
2017-10-11T19:49:50.032Z,9.62
2017-10-11T19:52:16.244Z,9.55
2017-10-11T19:54:42.450Z,9.44
2017-10-11T19:57:08.658Z,9.36
2017-10-11T19:59:34.866Z,9.32
2017-10-11T20:02:01.175Z,9.27
2017-10-11T20:04:27.386Z,9.25
2017-10-11T20:06:53.815Z,9.17
2017-10-11T20:09:20.023Z,9.12
2017-10-11T20:11:46.287Z,9.21
2017-10-11T20:14:12.523Z,9.24
2017-10-11T20:16:38.930Z,9.26
2017-10-11T20:19:05.239Z,9.20
2017-10-11T20:21:31.444Z,9.11
2017-10-11T20:23:57.640Z,9.05
2017-10-11T20:26:23.891Z,9.01
2017-10-11T20:28:50.095Z,9.02
2017-10-11T20:31:16.332Z,9.00
2017-10-11T20:33:42.552Z,8.93
2017-10-11T20:36:08.782Z,8.88
2017-10-11T20:38:35.023Z,8.84
2017-10-11T20:41:02.289Z,8.84
2017-10-11T20:43:28.825Z,8.87
2017-10-11T20:45:55.120Z,8.82
2017-10-11T20:48:21.328Z,8.70
2017-10-11T20:50:47.534Z,8.66
2017-10-11T20:53:13.771Z,8.58
2017-10-11T20:55:39.964Z,8.53
2017-10-11T20:58:06.199Z,8.46
2017-10-11T21:00:32.543Z,8.52
2017-10-11T21:02:58.777Z,8.46
2017-10-11T21:05:24.990Z,8.41
2017-10-11T21:07:51.391Z,8.40
2017-10-11T21:10:17.639Z,8.33
2017-10-11T21:12:44.055Z,8.39
2017-10-11T21:15:10.263Z,8.40
2017-10-11T21:17:36.508Z,8.35
2017-10-11T21:20:02.730Z,8.27
2017-10-11T21:22:28.967Z,8.22
2017-10-11T21:24:55.182Z,8.20
2017-10-11T21:27:21.400Z,8.16
2017-10-11T21:29:47.663Z,8.20
2017-10-11T21:32:13.874Z,8.18
2017-10-11T21:34:40.099Z,8.18
2017-10-11T21:37:06.345Z,8.22
2017-10-11T21:39:32.554Z,8.17
2017-10-11T21:41:58.774Z,8.24
2017-10-11T21:44:25.023Z,8.30
2017-10-11T21:46:51.256Z,8.28
2017-10-11T21:49:17.471Z,8.21
2017-10-11T21:51:43.720Z,8.19
2017-10-11T21:54:09.948Z,8.11
2017-10-11T21:56:36.163Z,8.01
2017-10-11T21:59:02.434Z,7.92
2017-10-11T22:01:28.655Z,8.04
2017-10-11T22:03:54.869Z,8.08
2017-10-11T22:06:21.122Z,8.11
2017-10-11T22:08:47.343Z,8.06
2017-10-11T22:11:13.554Z,8.02
2017-10-11T22:13:39.794Z,8.00
2017-10-11T22:16:06.020Z,8.04
2017-10-11T22:18:32.232Z,7.99
2017-10-11T22:20:58.472Z,7.97
2017-10-11T22:23:24.687Z,7.97
2017-10-11T22:25:50.916Z,7.87
2017-10-11T22:28:17.174Z,7.83
2017-10-11T22:30:43.399Z,7.78
2017-10-11T22:33:09.632Z,7.77
2017-10-11T22:35:35.897Z,7.79
2017-10-11T22:38:02.267Z,7.83
2017-10-11T22:40:28.500Z,7.78
2017-10-11T22:42:54.767Z,7.73
2017-10-11T22:45:21.001Z,7.73
2017-10-11T22:47:47.237Z,7.67
2017-10-11T22:50:13.601Z,7.56
2017-10-11T22:52:39.835Z,7.54
2017-10-11T22:55:06.048Z,7.47
2017-10-11T22:57:32.505Z,7.55
2017-10-11T22:59:58.740Z,7.50
2017-10-11T23:02:24.988Z,7.41
2017-10-11T23:04:51.259Z,7.41
2017-10-11T23:07:17.493Z,7.39
2017-10-11T23:09:43.727Z,7.34
2017-10-11T23:12:10.020Z,7.29
2017-10-11T23:14:36.272Z,7.23
2017-10-11T23:17:02.515Z,7.22
2017-10-11T23:19:28.773Z,7.16
2017-10-11T23:21:54.998Z,7.11
2017-10-11T23:24:21.213Z,7.16
2017-10-11T23:26:47.504Z,7.14
2017-10-11T23:29:13.734Z,7.13
2017-10-11T23:31:39.952Z,7.08
2017-10-11T23:34:06.210Z,7.03
2017-10-11T23:36:32.447Z,7.05
2017-10-11T23:38:58.653Z,7.01
2017-10-11T23:41:24.935Z,7.04
2017-10-11T23:43:51.146Z,7.02
2017-10-11T23:46:17.383Z,7.02
2017-10-11T23:48:43.715Z,7.03
2017-10-11T23:51:09.941Z,6.97
2017-10-11T23:53:36.182Z,6.95
2017-10-11T23:56:02.463Z,6.94
2017-10-11T23:58:28.669Z,6.91
